Odenton, Maryland
Current Conditions -  °F | °C
As of 12:21 PM on Saturday 25 Oct 2014 (Local Time) from KFME Reporting Station
Clear Clear  
Wind Chill: 68°   Ceiling: Unl
Heat Index: 68°   Visibility: 10mi
Dew Point: 41°   Wind: 7mph
Humidity: 37%   Direction: 290°WNW
Pressure: 29.92"   Gusts: NA
Location:  39.08°N, 76.69°W
Report Text: KFME 251621Z AUTO 29006KT 10SM CLR 20/05 A2992 RMK AO1
Loading
Personal Weather Stations






























Interactive Weather Map
Tropical Storm Tracking
New forecast layout! Learn more

10-Day Weather Forecast

Advertisements
Track Severe Weather on mobile